createdAt,value
2023-01-08T00:02:47.379Z,38.10
2023-01-08T00:12:47.341Z,34.70
2023-01-08T00:22:47.501Z,34.70
2023-01-08T00:32:47.431Z,34.60
2023-01-08T00:42:47.340Z,33.70
2023-01-08T00:52:47.333Z,33.30
2023-01-08T01:02:47.328Z,35.10
2023-01-08T01:12:47.350Z,30.80
2023-01-08T01:22:47.405Z,37.00
2023-01-08T01:32:47.336Z,31.50
2023-01-08T01:42:47.334Z,30.80
2023-01-08T01:52:47.416Z,32.70
2023-01-08T02:02:47.446Z,32.20
2023-01-08T02:12:47.360Z,26.20
2023-01-08T02:22:47.377Z,25.30
2023-01-08T02:32:47.362Z,25.90
2023-01-08T02:42:47.380Z,32.00
2023-01-08T02:52:47.354Z,37.30
2023-01-08T03:02:48.924Z,35.40
2023-01-08T03:12:47.396Z,34.20
2023-01-08T03:22:47.393Z,36.90
2023-01-08T03:32:47.368Z,38.40
2023-01-08T03:42:47.481Z,38.20
2023-01-08T03:52:47.402Z,38.80
2023-01-08T04:02:47.485Z,39.30
2023-01-08T04:12:47.423Z,38.10
2023-01-08T04:22:47.467Z,33.10
2023-01-08T04:32:47.409Z,38.80
2023-01-08T04:42:47.406Z,41.80
2023-01-08T04:52:47.433Z,40.60
2023-01-08T05:02:47.651Z,30.20
2023-01-08T05:12:47.474Z,42.60
2023-01-08T05:22:47.412Z,37.00
2023-01-08T05:42:47.430Z,33.40
2023-01-08T05:52:47.493Z,37.10
2023-01-08T06:02:47.551Z,37.10
2023-01-08T06:12:47.450Z,35.10
2023-01-08T06:22:47.456Z,38.60
2023-01-08T06:32:47.420Z,33.80
2023-01-08T06:42:47.451Z,31.90
2023-01-08T06:52:47.435Z,30.20
2023-01-08T07:02:47.569Z,34.80
2023-01-08T07:12:47.520Z,23.60
2023-01-08T07:22:47.461Z,24.90
2023-01-08T07:32:47.461Z,31.90
2023-01-08T07:42:47.460Z,29.00
2023-01-08T07:52:47.484Z,33.60
2023-01-08T08:02:47.588Z,31.50
2023-01-08T08:12:47.499Z,31.40
2023-01-08T08:22:47.497Z,27.90
2023-01-08T08:32:47.495Z,32.30
2023-01-08T08:42:47.464Z,29.20
2023-01-08T08:52:47.501Z,30.00
2023-01-08T09:02:47.567Z,25.30
2023-01-08T09:12:47.555Z,32.60
2023-01-08T09:22:47.483Z,30.50
2023-01-08T09:32:47.498Z,30.20
2023-01-08T09:42:47.512Z,26.00
2023-01-08T09:52:47.491Z,26.10
2023-01-08T10:02:47.708Z,28.40
2023-01-08T10:12:47.537Z,26.40
2023-01-08T10:22:47.545Z,26.00
2023-01-08T10:32:47.508Z,19.70
2023-01-08T10:42:47.543Z,18.70
2023-01-08T10:52:47.550Z,11.30
2023-01-08T11:02:47.628Z,11.00
2023-01-08T11:12:47.559Z,8.60
2023-01-08T11:22:47.578Z,10.10
2023-01-08T11:32:47.580Z,11.10
2023-01-08T11:42:47.559Z,10.90
2023-01-08T11:52:47.531Z,9.00
2023-01-08T12:02:47.615Z,6.60
2023-01-08T12:12:47.559Z,9.20
2023-01-08T12:22:47.591Z,7.20
2023-01-08T12:32:47.712Z,7.30
2023-01-08T12:43:00.092Z,5.80
2023-01-08T12:52:47.588Z,7.90
2023-01-08T13:02:47.629Z,7.90
2023-01-08T13:12:47.595Z,6.80
2023-01-08T13:22:47.609Z,6.90
2023-01-08T13:32:47.621Z,11.10
2023-01-08T13:42:47.575Z,14.50
2023-01-08T13:52:48.012Z,12.00
2023-01-08T14:02:47.642Z,13.50
2023-01-08T14:12:47.630Z,17.50
2023-01-08T14:22:47.616Z,21.40
2023-01-08T14:32:47.604Z,23.10
2023-01-08T14:42:47.642Z,23.20
2023-01-08T14:52:47.673Z,25.80
2023-01-08T15:02:47.682Z,27.40
2023-01-08T15:12:47.738Z,26.00
2023-01-08T15:22:47.615Z,24.30
2023-01-08T15:32:47.615Z,26.50
2023-01-08T15:42:47.620Z,27.20
2023-01-08T15:52:47.638Z,23.90
2023-01-08T16:02:47.741Z,28.70
2023-01-08T16:12:47.810Z,24.70
2023-01-08T16:22:47.657Z,27.80
2023-01-08T16:32:47.672Z,27.60
2023-01-08T16:42:47.670Z,24.40
2023-01-08T16:52:47.673Z,29.50
2023-01-08T17:02:47.998Z,28.10
2023-01-08T17:12:47.644Z,31.60
2023-01-08T17:22:47.739Z,33.80
2023-01-08T17:32:47.673Z,30.10
2023-01-08T17:42:47.727Z,30.80
2023-01-08T17:52:47.767Z,30.00
2023-01-08T18:02:47.917Z,27.40
2023-01-08T18:12:47.720Z,30.80
2023-01-08T18:22:47.728Z,28.30
2023-01-08T18:32:47.721Z,25.90
2023-01-08T18:42:47.764Z,27.40
2023-01-08T18:52:47.761Z,35.60
2023-01-08T19:02:47.811Z,26.70
2023-01-08T19:12:47.760Z,30.70
2023-01-08T19:22:47.816Z,31.10
2023-01-08T19:32:47.747Z,28.90
2023-01-08T19:42:47.785Z,32.20
2023-01-08T19:52:47.760Z,27.20
2023-01-08T20:02:48.686Z,31.50
2023-01-08T20:12:47.760Z,33.10
2023-01-08T20:22:47.739Z,29.60
2023-01-08T20:32:47.763Z,29.10
2023-01-08T20:42:47.764Z,27.30
2023-01-08T20:52:47.767Z,27.30
2023-01-08T21:02:47.779Z,25.00
2023-01-08T21:12:47.727Z,29.90
2023-01-08T21:22:47.755Z,29.50
2023-01-08T21:32:47.768Z,30.80
2023-01-08T21:42:47.756Z,27.50
2023-01-08T21:52:47.776Z,30.50
2023-01-08T22:02:47.737Z,23.70
2023-01-08T22:12:47.922Z,31.00
2023-01-08T22:22:47.747Z,30.00
2023-01-08T22:42:47.855Z,28.40
2023-01-08T22:52:47.763Z,27.60
2023-01-08T23:02:47.824Z,32.00
2023-01-08T23:12:47.848Z,32.90
2023-01-08T23:22:47.832Z,32.60
2023-01-08T23:32:47.882Z,24.10
2023-01-08T23:42:47.781Z,31.50
2023-01-08T23:52:47.794Z,28.40
